Waynetown, Indiana
Current Conditions -  °F | °C
As of 6:54 PM on Sunday 23 Nov 2014 (Local Time) from KLAF Reporting Station
Light Rain Light Rain  
Wind Chill: 51°   Ceiling: 900
Heat Index: 51°   Visibility: 6mi
Dew Point: 50°   Wind: 8mph
Humidity: 96%   Direction: 130°SE
Pressure: 29.37"   Gusts: NA
Location:  40.09°N, 87.06°W
Report Text: KLAF 232354Z 13007KT 6SM -RA BR OVC009 11/10 A2937 RMK AO2 CIG 006V012 SLP945 P0014 60039 T01060100 10117 20100 56052
Loading
Personal Weather Stations






























Interactive Weather Map New forecast layout! Learn more

10-Day Weather Forecast

Advertisements
Track Severe Weather on mobile